sensor_id;sensor_type;location;lat;lon;timestamp;pressure;altitude;pressure_sealevel;temperature;humidity
14242;BME280;7205;50.864;12.766;2023-07-31T00:01:38;97374.47;;;16.26;67.11
14242;BME280;7205;50.864;12.766;2023-07-31T00:04:04;97372.84;;;16.25;67.05
14242;BME280;7205;50.864;12.766;2023-07-31T00:06:33;97379.81;;;16.26;66.76
14242;BME280;7205;50.864;12.766;2023-07-31T00:08:59;97376.91;;;16.28;66.86
14242;BME280;7205;50.864;12.766;2023-07-31T00:11:26;97368.91;;;16.28;66.83
14242;BME280;7205;50.864;12.766;2023-07-31T00:13:53;97370.13;;;16.32;66.90
14242;BME280;7205;50.864;12.766;2023-07-31T00:16:20;97364.38;;;16.35;66.76
14242;BME280;7205;50.864;12.766;2023-07-31T00:18:47;97372.53;;;16.40;66.56
14242;BME280;7205;50.864;12.766;2023-07-31T00:21:14;97366.75;;;16.43;66.51
14242;BME280;7205;50.864;12.766;2023-07-31T00:23:42;97365.09;;;16.49;66.46
14242;BME280;7205;50.864;12.766;2023-07-31T00:26:08;97361.75;;;16.53;66.27
14242;BME280;7205;50.864;12.766;2023-07-31T00:28:35;97357.41;;;16.59;66.30
14242;BME280;7205;50.864;12.766;2023-07-31T00:31:02;97353.28;;;16.63;65.84
14242;BME280;7205;50.864;12.766;2023-07-31T00:33:30;97342.78;;;16.68;65.69
14242;BME280;7205;50.864;12.766;2023-07-31T00:35:57;97345.59;;;16.73;65.53
14242;BME280;7205;50.864;12.766;2023-07-31T00:38:25;97343.28;;;16.76;65.45
14242;BME280;7205;50.864;12.766;2023-07-31T00:40:53;97346.09;;;16.81;65.20
14242;BME280;7205;50.864;12.766;2023-07-31T00:43:20;97333.72;;;16.87;65.20
14242;BME280;7205;50.864;12.766;2023-07-31T00:45:47;97337.97;;;16.94;64.80
14242;BME280;7205;50.864;12.766;2023-07-31T00:48:14;97332.34;;;17.02;64.36
14242;BME280;7205;50.864;12.766;2023-07-31T00:50:41;97328.31;;;17.11;64.19
14242;BME280;7205;50.864;12.766;2023-07-31T00:53:08;97326.38;;;17.18;63.90
14242;BME280;7205;50.864;12.766;2023-07-31T00:55:35;97324.44;;;17.25;63.70
14242;BME280;7205;50.864;12.766;2023-07-31T00:58:03;97330.53;;;17.32;63.25
14242;BME280;7205;50.864;12.766;2023-07-31T01:00:30;97327.16;;;17.37;63.02
14242;BME280;7205;50.864;12.766;2023-07-31T01:02:57;97313.97;;;17.42;62.58
14242;BME280;7205;50.864;12.766;2023-07-31T01:05:31;97322.97;;;17.47;62.40
14242;BME280;7205;50.864;12.766;2023-07-31T01:08:05;97323.09;;;17.52;61.99
14242;BME280;7205;50.864;12.766;2023-07-31T01:10:41;97324.50;;;17.55;61.69
14242;BME280;7205;50.864;12.766;2023-07-31T01:13:11;97334.75;;;17.58;61.52
14242;BME280;7205;50.864;12.766;2023-07-31T01:15:37;97326.88;;;17.63;61.29
14242;BME280;7205;50.864;12.766;2023-07-31T01:18:05;97330.91;;;17.66;61.15
14242;BME280;7205;50.864;12.766;2023-07-31T01:20:33;97318.16;;;17.68;60.80
14242;BME280;7205;50.864;12.766;2023-07-31T01:26:12;97312.13;;;17.72;60.48
14242;BME280;7205;50.864;12.766;2023-07-31T01:28:46;97314.09;;;17.77;60.40
14242;BME280;7205;50.864;12.766;2023-07-31T01:31:20;97314.94;;;17.77;60.32
14242;BME280;7205;50.864;12.766;2023-07-31T01:33:50;97309.34;;;17.79;60.13
14242;BME280;7205;50.864;12.766;2023-07-31T01:36:17;97312.63;;;17.81;60.04
14242;BME280;7205;50.864;12.766;2023-07-31T01:38:44;97308.88;;;17.82;59.94
14242;BME280;7205;50.864;12.766;2023-07-31T01:41:12;97312.16;;;17.84;59.91
14242;BME280;7205;50.864;12.766;2023-07-31T01:43:39;97311.13;;;17.85;60.05
14242;BME280;7205;50.864;12.766;2023-07-31T01:46:06;97317.03;;;17.87;60.06
14242;BME280;7205;50.864;12.766;2023-07-31T01:48:32;97311.91;;;17.85;59.98
14242;BME280;7205;50.864;12.766;2023-07-31T01:51:02;97320.28;;;17.89;60.11
14242;BME280;7205;50.864;12.766;2023-07-31T01:53:30;97311.25;;;17.90;60.02
14242;BME280;7205;50.864;12.766;2023-07-31T01:55:57;97319.28;;;17.90;60.59
14242;BME280;7205;50.864;12.766;2023-07-31T01:58:26;97319.28;;;17.90;60.70
14242;BME280;7205;50.864;12.766;2023-07-31T02:00:53;97319.50;;;17.88;61.06
14242;BME280;7205;50.864;12.766;2023-07-31T02:03:19;97310.66;;;17.88;61.31
14242;BME280;7205;50.864;12.766;2023-07-31T02:05:47;97313.56;;;17.86;61.63
14242;BME280;7205;50.864;12.766;2023-07-31T02:08:14;97311.91;;;17.85;62.16
14242;BME280;7205;50.864;12.766;2023-07-31T02:10:42;97312.38;;;17.82;62.45
14242;BME280;7205;50.864;12.766;2023-07-31T02:13:10;97309.34;;;17.79;62.84
14242;BME280;7205;50.864;12.766;2023-07-31T02:15:38;97303.66;;;17.75;63.14
14242;BME280;7205;50.864;12.766;2023-07-31T02:18:04;97303.09;;;17.73;63.89
14242;BME280;7205;50.864;12.766;2023-07-31T02:20:33;97304.34;;;17.71;64.18
14242;BME280;7205;50.864;12.766;2023-07-31T02:23:01;97306.41;;;17.69;64.65
14242;BME280;7205;50.864;12.766;2023-07-31T02:25:28;97298.88;;;17.66;65.03
14242;BME280;7205;50.864;12.766;2023-07-31T02:27:54;97305.50;;;17.63;65.42
14242;BME280;7205;50.864;12.766;2023-07-31T02:30:21;97305.13;;;17.60;65.86
14242;BME280;7205;50.864;12.766;2023-07-31T02:32:49;97296.75;;;17.56;66.17
14242;BME280;7205;50.864;12.766;2023-07-31T02:35:16;97300.47;;;17.55;66.90
14242;BME280;7205;50.864;12.766;2023-07-31T02:37:44;97295.56;;;17.52;67.25
14242;BME280;7205;50.864;12.766;2023-07-31T02:40:11;97297.22;;;17.53;67.69
14242;BME280;7205;50.864;12.766;2023-07-31T02:42:38;97284.53;;;17.48;68.12
14242;BME280;7205;50.864;12.766;2023-07-31T02:45:06;97284.75;;;17.47;68.50
14242;BME280;7205;50.864;12.766;2023-07-31T02:47:33;97278.22;;;17.43;68.83
14242;BME280;7205;50.864;12.766;2023-07-31T02:50:02;97281.94;;;17.42;69.11
14242;BME280;7205;50.864;12.766;2023-07-31T02:52:29;97281.34;;;17.40;69.53
14242;BME280;7205;50.864;12.766;2023-07-31T02:54:56;97274.38;;;17.39;69.69
14242;BME280;7205;50.864;12.766;2023-07-31T02:57:23;97278.28;;;17.36;70.01
14242;BME280;7205;50.864;12.766;2023-07-31T02:59:50;97281.78;;;17.37;70.26
14242;BME280;7205;50.864;12.766;2023-07-31T03:02:17;97279.81;;;17.32;70.20
14242;BME280;7205;50.864;12.766;2023-07-31T03:04:44;97266.47;;;17.32;70.65
14242;BME280;7205;50.864;12.766;2023-07-31T03:07:12;97277.38;;;17.31;70.64
14242;BME280;7205;50.864;12.766;2023-07-31T03:09:38;97277.38;;;17.31;71.15
14242;BME280;7205;50.864;12.766;2023-07-31T03:12:06;97287.22;;;17.30;71.27
14242;BME280;7205;50.864;12.766;2023-07-31T03:14:33;97281.28;;;17.28;71.44
14242;BME280;7205;50.864;12.766;2023-07-31T03:17:00;97278.84;;;17.27;71.87
14242;BME280;7205;50.864;12.766;2023-07-31T03:19:27;97272.91;;;17.25;72.27
14242;BME280;7205;50.864;12.766;2023-07-31T03:21:56;97276.03;;;17.22;72.58
14242;BME280;7205;50.864;12.766;2023-07-31T03:24:24;97272.41;;;17.16;72.79
14242;BME280;7205;50.864;12.766;2023-07-31T03:26:51;97282.88;;;17.18;72.97
14242;BME280;7205;50.864;12.766;2023-07-31T03:29:18;97281.47;;;17.15;73.49
14242;BME280;7205;50.864;12.766;2023-07-31T03:31:45;97278.22;;;17.13;73.91
14242;BME280;7205;50.864;12.766;2023-07-31T03:34:12;97275.16;;;17.10;74.38
14242;BME280;7205;50.864;12.766;2023-07-31T03:36:39;97274.81;;;17.06;74.73
14242;BME280;7205;50.864;12.766;2023-07-31T03:39:06;97268.31;;;17.02;75.18
14242;BME280;7205;50.864;12.766;2023-07-31T03:41:34;97273.28;;;16.99;75.73
14242;BME280;7205;50.864;12.766;2023-07-31T03:44:00;97265.94;;;16.94;75.94
14242;BME280;7205;50.864;12.766;2023-07-31T03:46:27;97260.84;;;16.93;76.40
14242;BME280;7205;50.864;12.766;2023-07-31T03:48:54;97268.25;;;16.91;76.61
14242;BME280;7205;50.864;12.766;2023-07-31T03:51:22;97262.31;;;16.89;77.01
14242;BME280;7205;50.864;12.766;2023-07-31T03:53:49;97273.44;;;16.86;77.51
14242;BME280;7205;50.864;12.766;2023-07-31T03:56:15;97269.94;;;16.85;78.34
14242;BME280;7205;50.864;12.766;2023-07-31T03:58:44;97268.75;;;16.81;78.39
14242;BME280;7205;50.864;12.766;2023-07-31T04:01:10;97269.56;;;16.82;78.65
14242;BME280;7205;50.864;12.766;2023-07-31T04:03:37;97264.69;;;16.79;79.01
14242;BME280;7205;50.864;12.766;2023-07-31T04:06:04;97253.44;;;16.77;79.52
14242;BME280;7205;50.864;12.766;2023-07-31T04:08:32;97250.53;;;16.78;79.57
14242;BME280;7205;50.864;12.766;2023-07-31T04:10:59;97253.22;;;16.78;80.00
14242;BME280;7205;50.864;12.766;2023-07-31T04:13:25;97258.53;;;16.78;80.29
14242;BME280;7205;50.864;12.766;2023-07-31T04:15:54;97255.66;;;16.80;80.60
14242;BME280;7205;50.864;12.766;2023-07-31T04:18:21;97247.06;;;16.78;80.83
14242;BME280;7205;50.864;12.766;2023-07-31T04:20:48;97256.69;;;16.79;81.06
14242;BME280;7205;50.864;12.766;2023-07-31T04:23:15;97245.19;;;16.78;81.33
14242;BME280;7205;50.864;12.766;2023-07-31T04:25:41;97246.84;;;16.79;81.47
14242;BME280;7205;50.864;12.766;2023-07-31T04:28:08;97247.41;;;16.81;81.82
14242;BME280;7205;50.864;12.766;2023-07-31T04:30:35;97251.50;;;16.84;81.92
14242;BME280;7205;50.864;12.766;2023-07-31T04:33:03;97247.78;;;16.85;82.13
14242;BME280;7205;50.864;12.766;2023-07-31T04:35:30;97246.53;;;16.87;82.47
14242;BME280;7205;50.864;12.766;2023-07-31T04:37:57;97245.84;;;16.92;82.64
14242;BME280;7205;50.864;12.766;2023-07-31T04:40:23;97233.72;;;16.96;82.85
14242;BME280;7205;50.864;12.766;2023-07-31T04:42:50;97233.84;;;17.01;83.01
14242;BME280;7205;50.864;12.766;2023-07-31T04:45:17;97231.91;;;17.08;83.09
14242;BME280;7205;50.864;12.766;2023-07-31T04:47:44;97224.06;;;17.13;83.02
14242;BME280;7205;50.864;12.766;2023-07-31T04:50:12;97226.63;;;17.19;83.25
14242;BME280;7205;50.864;12.766;2023-07-31T04:52:39;97215.84;;;17.26;83.34
14242;BME280;7205;50.864;12.766;2023-07-31T04:55:06;97213.69;;;17.34;83.14
14242;BME280;7205;50.864;12.766;2023-07-31T04:57:33;97217.84;;;17.42;83.16
14242;BME280;7205;50.864;12.766;2023-07-31T05:00:00;97215.72;;;17.50;82.99
14242;BME280;7205;50.864;12.766;2023-07-31T05:02:56;97214.56;;;17.58;82.60
14242;BME280;7205;50.864;12.766;2023-07-31T05:06:11;97215.63;;;17.69;82.45
14242;BME280;7205;50.864;12.766;2023-07-31T05:08:55;97213.44;;;17.77;82.04
14242;BME280;7205;50.864;12.766;2023-07-31T05:11:22;97215.31;;;17.88;81.74
14242;BME280;7205;50.864;12.766;2023-07-31T05:13:49;97214.50;;;17.88;81.87
14242;BME280;7205;50.864;12.766;2023-07-31T05:16:16;97218.66;;;17.95;81.38
14242;BME280;7205;50.864;12.766;2023-07-31T05:18:43;97216.22;;;17.94;80.42
14242;BME280;7205;50.864;12.766;2023-07-31T05:21:11;97212.97;;;17.92;80.03
14242;BME280;7205;50.864;12.766;2023-07-31T05:23:38;97225.28;;;17.93;79.92
14242;BME280;7205;50.864;12.766;2023-07-31T05:26:05;97224.25;;;17.94;79.80
14242;BME280;7205;50.864;12.766;2023-07-31T05:28:36;97218.44;;;17.97;79.56
14242;BME280;7205;50.864;12.766;2023-07-31T05:31:03;97216.56;;;17.97;78.92
14242;BME280;7205;50.864;12.766;2023-07-31T05:33:31;97227.25;;;17.97;78.57
14242;BME280;7205;50.864;12.766;2023-07-31T05:35:58;97228.09;;;17.98;78.22
14242;BME280;7205;50.864;12.766;2023-07-31T05:38:29;97215.88;;;17.90;77.81
14242;BME280;7205;50.864;12.766;2023-07-31T05:40:57;97224.13;;;18.00;77.92
14242;BME280;7205;50.864;12.766;2023-07-31T05:43:24;97222.63;;;18.04;77.96
14242;BME280;7205;50.864;12.766;2023-07-31T05:46:02;97221.13;;;18.08;77.93
14242;BME280;7205;50.864;12.766;2023-07-31T05:48:30;97220.41;;;18.13;77.86
14242;BME280;7205;50.864;12.766;2023-07-31T05:50:57;97213.78;;;18.15;77.22
14242;BME280;7205;50.864;12.766;2023-07-31T05:53:24;97206.81;;;18.14;76.95
14242;BME280;7205;50.864;12.766;2023-07-31T05:55:55;97208.91;;;18.12;76.53
14242;BME280;7205;50.864;12.766;2023-07-31T05:58:25;97205.44;;;18.12;76.31
14242;BME280;7205;50.864;12.766;2023-07-31T06:03:36;97213.81;;;18.27;76.27
14242;BME280;7205;50.864;12.766;2023-07-31T06:06:14;97192.84;;;18.24;76.12
14242;BME280;7205;50.864;12.766;2023-07-31T06:16:13;97199.72;;;18.54;75.68
14242;BME280;7205;50.864;12.766;2023-07-31T06:18:41;97199.69;;;18.66;75.19
14242;BME280;7205;50.864;12.766;2023-07-31T06:21:08;97200.72;;;18.77;74.55
14242;BME280;7205;50.864;12.766;2023-07-31T06:23:35;97199.50;;;18.84;73.71
14242;BME280;7205;50.864;12.766;2023-07-31T06:26:02;97199.34;;;18.91;73.02
14242;BME280;7205;50.864;12.766;2023-07-31T06:28:29;97208.31;;;18.96;72.75
14242;BME280;7205;50.864;12.766;2023-07-31T06:30:56;97206.56;;;19.02;72.53
14242;BME280;7205;50.864;12.766;2023-07-31T06:33:25;97194.88;;;19.08;72.11
14242;BME280;7205;50.864;12.766;2023-07-31T06:35:52;97212.69;;;19.14;72.13
14242;BME280;7205;50.864;12.766;2023-07-31T06:38:22;97220.56;;;19.20;71.40
14242;BME280;7205;50.864;12.766;2023-07-31T06:40:49;97215.31;;;19.25;71.00
14242;BME280;7205;50.864;12.766;2023-07-31T06:43:16;97214.34;;;19.31;70.37
14242;BME280;7205;50.864;12.766;2023-07-31T06:45:43;97218.19;;;19.35;70.15
14242;BME280;7205;50.864;12.766;2023-07-31T06:48:10;97216.41;;;19.41;69.87
14242;BME280;7205;50.864;12.766;2023-07-31T06:50:38;97222.91;;;19.45;69.18
14242;BME280;7205;50.864;12.766;2023-07-31T06:53:05;97216.03;;;19.49;68.86
14242;BME280;7205;50.864;12.766;2023-07-31T06:55:32;97211.53;;;19.54;68.63
14242;BME280;7205;50.864;12.766;2023-07-31T06:57:59;97218.38;;;19.62;68.30
14242;BME280;7205;50.864;12.766;2023-07-31T07:00:27;97211.56;;;19.71;67.67
14242;BME280;7205;50.864;12.766;2023-07-31T07:02:54;97214.19;;;19.82;67.39
14242;BME280;7205;50.864;12.766;2023-07-31T07:05:21;97210.84;;;19.92;66.81
14242;BME280;7205;50.864;12.766;2023-07-31T07:07:50;97202.13;;;20.02;66.23
14242;BME280;7205;50.864;12.766;2023-07-31T07:10:17;97193.66;;;20.10;65.65
14242;BME280;7205;50.864;12.766;2023-07-31T07:12:44;97202.84;;;20.14;64.89
14242;BME280;7205;50.864;12.766;2023-07-31T07:15:11;97206.94;;;20.16;64.60
14242;BME280;7205;50.864;12.766;2023-07-31T07:17:37;97206.53;;;20.24;64.56
14242;BME280;7205;50.864;12.766;2023-07-31T07:20:05;97211.78;;;20.36;64.23
14242;BME280;7205;50.864;12.766;2023-07-31T07:22:33;97208.19;;;20.47;63.93
14242;BME280;7205;50.864;12.766;2023-07-31T07:25:01;97215.63;;;20.61;63.47
14242;BME280;7205;50.864;12.766;2023-07-31T07:27:28;97228.13;;;20.72;62.63
14242;BME280;7205;50.864;12.766;2023-07-31T07:29:55;97224.41;;;20.78;61.71
14242;BME280;7205;50.864;12.766;2023-07-31T07:32:22;97222.56;;;20.79;60.94
14242;BME280;7205;50.864;12.766;2023-07-31T07:34:49;97227.34;;;20.77;60.72
14242;BME280;7205;50.864;12.766;2023-07-31T07:37:16;97217.13;;;20.74;60.46
14242;BME280;7205;50.864;12.766;2023-07-31T07:39:43;97223.00;;;20.71;60.55
14242;BME280;7205;50.864;12.766;2023-07-31T07:42:11;97219.25;;;20.72;60.77
14242;BME280;7205;50.864;12.766;2023-07-31T07:44:38;97204.03;;;20.77;60.74
14242;BME280;7205;50.864;12.766;2023-07-31T07:47:05;97201.16;;;20.84;60.50
14242;BME280;7205;50.864;12.766;2023-07-31T07:49:33;97205.75;;;20.88;60.11
14242;BME280;7205;50.864;12.766;2023-07-31T07:52:00;97204.72;;;20.89;59.86
14242;BME280;7205;50.864;12.766;2023-07-31T07:54:26;97208.44;;;20.88;59.62
14242;BME280;7205;50.864;12.766;2023-07-31T07:56:53;97214.00;;;20.82;59.16
14242;BME280;7205;50.864;12.766;2023-07-31T07:59:21;97207.22;;;20.74;59.19
14242;BME280;7205;50.864;12.766;2023-07-31T08:01:48;97213.25;;;20.65;59.27
14242;BME280;7205;50.864;12.766;2023-07-31T08:04:15;97218.25;;;20.56;59.65
14242;BME280;7205;50.864;12.766;2023-07-31T08:06:42;97217.13;;;20.52;60.10
14242;BME280;7205;50.864;12.766;2023-07-31T08:09:09;97212.78;;;20.51;60.25
14242;BME280;7205;50.864;12.766;2023-07-31T08:11:35;97205.75;;;20.45;60.13
14242;BME280;7205;50.864;12.766;2023-07-31T08:14:02;97215.34;;;20.41;60.22
14242;BME280;7205;50.864;12.766;2023-07-31T08:16:30;97223.88;;;20.38;60.27
14242;BME280;7205;50.864;12.766;2023-07-31T08:18:57;97212.59;;;20.36;60.73
14242;BME280;7205;50.864;12.766;2023-07-31T08:21:24;97218.19;;;20.35;60.71
14242;BME280;7205;50.864;12.766;2023-07-31T08:23:51;97207.97;;;20.32;60.71
14242;BME280;7205;50.864;12.766;2023-07-31T08:26:18;97217.88;;;20.31;60.99
14242;BME280;7205;50.864;12.766;2023-07-31T08:28:45;97210.91;;;20.30;61.08
14242;BME280;7205;50.864;12.766;2023-07-31T08:31:12;97214.41;;;20.31;60.99
14242;BME280;7205;50.864;12.766;2023-07-31T08:33:40;97210.09;;;20.30;61.02
14242;BME280;7205;50.864;12.766;2023-07-31T08:36:07;97213.84;;;20.29;60.91
14242;BME280;7205;50.864;12.766;2023-07-31T08:38:34;97215.94;;;20.27;61.13
14242;BME280;7205;50.864;12.766;2023-07-31T08:41:02;97214.09;;;20.27;61.27
14242;BME280;7205;50.864;12.766;2023-07-31T08:43:30;97214.16;;;20.32;61.43
14242;BME280;7205;50.864;12.766;2023-07-31T08:45:57;97216.91;;;20.37;61.80
14242;BME280;7205;50.864;12.766;2023-07-31T08:48:24;97205.50;;;20.47;61.71
14242;BME280;7205;50.864;12.766;2023-07-31T08:50:53;97206.13;;;20.54;61.53
14242;BME280;7205;50.864;12.766;2023-07-31T08:53:20;97203.00;;;20.62;61.33
14242;BME280;7205;50.864;12.766;2023-07-31T08:55:48;97208.75;;;20.70;60.92
14242;BME280;7205;50.864;12.766;2023-07-31T08:58:15;97200.25;;;20.78;60.95
14242;BME280;7205;50.864;12.766;2023-07-31T09:00:46;97206.56;;;20.89;60.67
14242;BME280;7205;50.864;12.766;2023-07-31T09:03:14;97201.00;;;20.95;59.97
14242;BME280;7205;50.864;12.766;2023-07-31T09:05:43;97206.22;;;21.02;59.79
14242;BME280;7205;50.864;12.766;2023-07-31T09:08:13;97203.91;;;21.10;59.88
14242;BME280;7205;50.864;12.766;2023-07-31T09:10:41;97199.41;;;21.16;59.55
14242;BME280;7205;50.864;12.766;2023-07-31T09:13:08;97194.34;;;21.20;59.15
14242;BME280;7205;50.864;12.766;2023-07-31T09:15:36;97200.81;;;21.24;58.89
14242;BME280;7205;50.864;12.766;2023-07-31T09:18:05;97208.13;;;21.28;58.82
14242;BME280;7205;50.864;12.766;2023-07-31T09:20:32;97196.88;;;21.31;58.81
14242;BME280;7205;50.864;12.766;2023-07-31T09:23:05;97195.53;;;21.34;58.33
14242;BME280;7205;50.864;12.766;2023-07-31T09:25:34;97191.28;;;21.38;58.42
14242;BME280;7205;50.864;12.766;2023-07-31T09:28:02;97200.69;;;21.40;58.03
14242;BME280;7205;50.864;12.766;2023-07-31T09:30:30;97195.09;;;21.42;57.87
14242;BME280;7205;50.864;12.766;2023-07-31T09:33:01;97191.34;;;21.43;57.78
14242;BME280;7205;50.864;12.766;2023-07-31T09:35:30;97189.78;;;21.47;57.69
14242;BME280;7205;50.864;12.766;2023-07-31T09:37:59;97186.06;;;21.53;58.00
14242;BME280;7205;50.864;12.766;2023-07-31T09:40:27;97181.59;;;21.63;58.00
14242;BME280;7205;50.864;12.766;2023-07-31T09:42:58;97175.53;;;21.78;57.91
14242;BME280;7205;50.864;12.766;2023-07-31T09:45:25;97178.59;;;21.91;57.19
14242;BME280;7205;50.864;12.766;2023-07-31T09:47:53;97179.28;;;22.08;57.31
14242;BME280;7205;50.864;12.766;2023-07-31T09:50:21;97174.81;;;22.29;56.92
14242;BME280;7205;50.864;12.766;2023-07-31T09:52:48;97182.97;;;22.49;56.59
14242;BME280;7205;50.864;12.766;2023-07-31T09:55:16;97166.16;;;22.69;56.11
14242;BME280;7205;50.864;12.766;2023-07-31T09:57:45;97179.16;;;22.87;55.20
14242;BME280;7205;50.864;12.766;2023-07-31T10:00:16;97176.78;;;23.00;54.45
14242;BME280;7205;50.864;12.766;2023-07-31T10:02:45;97166.28;;;23.09;53.69
14242;BME280;7205;50.864;12.766;2023-07-31T10:05:14;97167.66;;;23.16;53.41
14242;BME280;7205;50.864;12.766;2023-07-31T10:07:43;97162.53;;;23.20;52.97
14242;BME280;7205;50.864;12.766;2023-07-31T10:10:13;97169.56;;;23.16;52.24
14242;BME280;7205;50.864;12.766;2023-07-31T10:12:42;97167.34;;;23.03;52.17
14242;BME280;7205;50.864;12.766;2023-07-31T10:15:10;97165.97;;;22.85;52.31
14242;BME280;7205;50.864;12.766;2023-07-31T10:17:39;97165.88;;;22.65;52.59
14242;BME280;7205;50.864;12.766;2023-07-31T10:20:07;97167.09;;;22.48;53.53
14242;BME280;7205;50.864;12.766;2023-07-31T10:22:35;97174.56;;;22.35;54.59
14242;BME280;7205;50.864;12.766;2023-07-31T10:25:02;97163.00;;;22.30;55.07
14242;BME280;7205;50.864;12.766;2023-07-31T10:27:30;97161.63;;;22.32;55.41
14242;BME280;7205;50.864;12.766;2023-07-31T10:29:58;97148.53;;;22.46;56.70
14242;BME280;7205;50.864;12.766;2023-07-31T10:32:26;97147.81;;;22.66;56.86
14242;BME280;7205;50.864;12.766;2023-07-31T10:34:55;97156.53;;;22.88;57.42
14242;BME280;7205;50.864;12.766;2023-07-31T10:37:24;97150.66;;;23.11;57.65
14242;BME280;7205;50.864;12.766;2023-07-31T10:39:58;97155.59;;;23.34;57.38
14242;BME280;7205;50.864;12.766;2023-07-31T10:42:30;97150.50;;;23.52;56.70
14242;BME280;7205;50.864;12.766;2023-07-31T10:44:58;97149.13;;;23.75;56.42
14242;BME280;7205;50.864;12.766;2023-07-31T10:47:26;97145.63;;;24.00;55.79
14242;BME280;7205;50.864;12.766;2023-07-31T10:49:52;97138.00;;;24.27;55.31
14242;BME280;7205;50.864;12.766;2023-07-31T10:52:21;97130.91;;;24.56;55.57
14242;BME280;7205;50.864;12.766;2023-07-31T10:54:49;97136.47;;;24.85;54.19
14242;BME280;7205;50.864;12.766;2023-07-31T10:57:20;97131.25;;;25.03;51.79
14242;BME280;7205;50.864;12.766;2023-07-31T10:59:48;97128.94;;;25.20;51.32
14242;BME280;7205;50.864;12.766;2023-07-31T11:02:25;97114.34;;;25.26;49.35
14242;BME280;7205;50.864;12.766;2023-07-31T11:05:08;97119.19;;;25.24;49.01
14242;BME280;7205;50.864;12.766;2023-07-31T11:07:49;97123.03;;;25.18;48.17
14242;BME280;7205;50.864;12.766;2023-07-31T11:10:17;97119.00;;;25.16;47.93
14242;BME280;7205;50.864;12.766;2023-07-31T11:12:45;97116.28;;;25.16;48.11
14242;BME280;7205;50.864;12.766;2023-07-31T11:15:13;97117.66;;;25.13;47.78
14242;BME280;7205;50.864;12.766;2023-07-31T11:17:39;97125.56;;;25.05;47.65
14242;BME280;7205;50.864;12.766;2023-07-31T11:20:07;97114.88;;;24.85;47.16
14242;BME280;7205;50.864;12.766;2023-07-31T11:22:34;97117.13;;;24.57;47.43
14242;BME280;7205;50.864;12.766;2023-07-31T11:25:03;97115.84;;;24.35;47.92
14242;BME280;7205;50.864;12.766;2023-07-31T11:27:30;97112.13;;;24.21;47.92
14242;BME280;7205;50.864;12.766;2023-07-31T11:30:00;97105.66;;;24.17;48.66
14242;BME280;7205;50.864;12.766;2023-07-31T11:32:27;97098.34;;;24.22;48.46
14242;BME280;7205;50.864;12.766;2023-07-31T11:34:54;97097.53;;;24.22;47.75
14242;BME280;7205;50.864;12.766;2023-07-31T11:37:22;97101.59;;;24.19;47.54
14242;BME280;7205;50.864;12.766;2023-07-31T11:39:59;97096.22;;;24.19;48.00
14242;BME280;7205;50.864;12.766;2023-07-31T11:42:27;97083.47;;;24.30;47.93
14242;BME280;7205;50.864;12.766;2023-07-31T11:44:54;97080.72;;;24.45;47.62
14242;BME280;7205;50.864;12.766;2023-07-31T11:47:21;97093.31;;;24.64;47.67
14242;BME280;7205;50.864;12.766;2023-07-31T11:49:49;97089.72;;;24.89;47.54
14242;BME280;7205;50.864;12.766;2023-07-31T11:52:15;97073.91;;;25.11;47.25
14242;BME280;7205;50.864;12.766;2023-07-31T11:54:43;97080.50;;;25.29;46.66
14242;BME280;7205;50.864;12.766;2023-07-31T11:57:10;97082.28;;;25.48;46.49
14242;BME280;7205;50.864;12.766;2023-07-31T11:59:39;97078.91;;;25.61;45.85
14242;BME280;7205;50.864;12.766;2023-07-31T12:02:06;97085.28;;;25.75;45.55
14242;BME280;7205;50.864;12.766;2023-07-31T12:04:32;97065.44;;;25.85;44.88
14242;BME280;7205;50.864;12.766;2023-07-31T12:07:00;97060.44;;;25.97;45.04
14242;BME280;7205;50.864;12.766;2023-07-31T12:09:26;97060.84;;;26.09;44.71
14242;BME280;7205;50.864;12.766;2023-07-31T12:11:53;97056.72;;;26.17;44.03
14242;BME280;7205;50.864;12.766;2023-07-31T12:14:20;97054.19;;;26.25;44.03
14242;BME280;7205;50.864;12.766;2023-07-31T12:16:53;97053.59;;;26.28;43.70
14242;BME280;7205;50.864;12.766;2023-07-31T12:19:21;97057.84;;;26.34;43.97
14242;BME280;7205;50.864;12.766;2023-07-31T12:21:48;97059.72;;;26.39;43.17
14242;BME280;7205;50.864;12.766;2023-07-31T12:24:14;97061.59;;;26.38;42.84
14242;BME280;7205;50.864;12.766;2023-07-31T12:26:45;97065.44;;;26.37;42.58
14242;BME280;7205;50.864;12.766;2023-07-31T12:29:12;97056.16;;;26.20;41.72
14242;BME280;7205;50.864;12.766;2023-07-31T12:31:41;97056.09;;;25.96;41.52
14242;BME280;7205;50.864;12.766;2023-07-31T12:34:16;97057.22;;;25.66;41.62
14242;BME280;7205;50.864;12.766;2023-07-31T12:36:44;97035.75;;;25.51;41.88
14242;BME280;7205;50.864;12.766;2023-07-31T12:39:12;97034.47;;;25.39;42.01
14242;BME280;7205;50.864;12.766;2023-07-31T12:41:39;97032.66;;;25.29;42.21
14242;BME280;7205;50.864;12.766;2023-07-31T12:44:05;97021.31;;;25.27;42.99
14242;BME280;7205;50.864;12.766;2023-07-31T12:46:32;97026.13;;;25.35;43.21
14242;BME280;7205;50.864;12.766;2023-07-31T12:48:59;97013.91;;;25.43;42.68
14242;BME280;7205;50.864;12.766;2023-07-31T12:51:27;97009.22;;;25.53;42.95
14242;BME280;7205;50.864;12.766;2023-07-31T12:53:54;97015.03;;;25.65;43.01
14242;BME280;7205;50.864;12.766;2023-07-31T12:56:21;97016.78;;;25.80;42.63
14242;BME280;7205;50.864;12.766;2023-07-31T12:58:47;97021.03;;;25.86;42.65
14242;BME280;7205;50.864;12.766;2023-07-31T13:01:14;97021.22;;;25.94;42.60
14242;BME280;7205;50.864;12.766;2023-07-31T13:03:41;97016.31;;;26.02;42.55
14242;BME280;7205;50.864;12.766;2023-07-31T13:06:08;97016.13;;;26.17;43.17
14242;BME280;7205;50.864;12.766;2023-07-31T13:08:36;97003.50;;;26.31;42.60
14242;BME280;7205;50.864;12.766;2023-07-31T13:11:02;97009.63;;;26.36;42.66
14242;BME280;7205;50.864;12.766;2023-07-31T13:13:31;97018.56;;;26.37;42.21
14242;BME280;7205;50.864;12.766;2023-07-31T13:15:58;97009.63;;;26.36;42.31
14242;BME280;7205;50.864;12.766;2023-07-31T13:18:25;97013.69;;;26.39;41.59